sensor_id;sensor_type;location;lat;lon;timestamp;P1;durP1;ratioP1;P2;durP2;ratioP2
8831;SDS011;4452;50.756;4.472;2022-10-16T00:00:37;1.73;;;1.10;;
8831;SDS011;4452;50.756;4.472;2022-10-16T00:03:05;2.90;;;1.17;;
8831;SDS011;4452;50.756;4.472;2022-10-16T00:05:31;5.47;;;1.13;;
8831;SDS011;4452;50.756;4.472;2022-10-16T00:07:57;2.10;;;1.00;;
8831;SDS011;4452;50.756;4.472;2022-10-16T00:10:23;1.83;;;1.10;;
8831;SDS011;4452;50.756;4.472;2022-10-16T00:12:49;2.47;;;1.10;;
8831;SDS011;4452;50.756;4.472;2022-10-16T00:15:15;5.30;;;1.55;;
8831;SDS011;4452;50.756;4.472;2022-10-16T00:17:41;3.85;;;1.10;;
8831;SDS011;4452;50.756;4.472;2022-10-16T00:20:07;1.75;;;1.00;;
8831;SDS011;4452;50.756;4.472;2022-10-16T00:22:33;1.75;;;1.10;;
8831;SDS011;4452;50.756;4.472;2022-10-16T00:24:58;1.08;;;0.98;;
8831;SDS011;4452;50.756;4.472;2022-10-16T00:27:24;1.90;;;1.25;;
8831;SDS011;4452;50.756;4.472;2022-10-16T00:29:50;1.63;;;1.20;;
8831;SDS011;4452;50.756;4.472;2022-10-16T00:32:17;6.25;;;1.00;;
8831;SDS011;4452;50.756;4.472;2022-10-16T00:34:44;1.58;;;1.10;;
8831;SDS011;4452;50.756;4.472;2022-10-16T00:37:10;3.72;;;1.50;;
8831;SDS011;4452;50.756;4.472;2022-10-16T00:39:36;8.38;;;1.27;;
8831;SDS011;4452;50.756;4.472;2022-10-16T00:42:02;1.30;;;1.20;;
8831;SDS011;4452;50.756;4.472;2022-10-16T00:47:17;1.40;;;1.30;;
8831;SDS011;4452;50.756;4.472;2022-10-16T00:49:46;1.83;;;1.00;;
8831;SDS011;4452;50.756;4.472;2022-10-16T00:52:14;5.05;;;1.35;;
8831;SDS011;4452;50.756;4.472;2022-10-16T00:54:40;2.97;;;1.40;;
8831;SDS011;4452;50.756;4.472;2022-10-16T00:57:06;2.58;;;1.38;;
8831;SDS011;4452;50.756;4.472;2022-10-16T00:59:36;2.72;;;1.58;;
8831;SDS011;4452;50.756;4.472;2022-10-16T01:02:05;2.67;;;1.50;;
8831;SDS011;4452;50.756;4.472;2022-10-16T01:04:34;1.60;;;1.50;;
8831;SDS011;4452;50.756;4.472;2022-10-16T01:12:14;1.85;;;1.50;;
8831;SDS011;4452;50.756;4.472;2022-10-16T01:20:26;1.48;;;1.45;;
8831;SDS011;4452;50.756;4.472;2022-10-16T01:23:05;1.63;;;1.50;;
8831;SDS011;4452;50.756;4.472;2022-10-16T01:28:39;1.63;;;1.52;;
8831;SDS011;4452;50.756;4.472;2022-10-16T01:31:13;3.42;;;1.30;;
8831;SDS011;4452;50.756;4.472;2022-10-16T01:33:42;11.25;;;1.88;;
8831;SDS011;4452;50.756;4.472;2022-10-16T01:36:15;4.65;;;1.50;;
8831;SDS011;4452;50.756;4.472;2022-10-16T01:38:46;2.08;;;1.58;;
8831;SDS011;4452;50.756;4.472;2022-10-16T01:41:24;5.28;;;1.63;;
8831;SDS011;4452;50.756;4.472;2022-10-16T01:43:58;3.45;;;1.77;;
8831;SDS011;4452;50.756;4.472;2022-10-16T01:46:36;4.07;;;1.65;;
8831;SDS011;4452;50.756;4.472;2022-10-16T01:49:04;6.43;;;1.90;;
8831;SDS011;4452;50.756;4.472;2022-10-16T01:51:33;5.55;;;1.98;;
8831;SDS011;4452;50.756;4.472;2022-10-16T01:54:00;3.15;;;1.60;;
8831;SDS011;4452;50.756;4.472;2022-10-16T01:56:29;2.25;;;2.10;;
8831;SDS011;4452;50.756;4.472;2022-10-16T01:58:57;2.15;;;1.80;;
8831;SDS011;4452;50.756;4.472;2022-10-16T02:01:27;2.30;;;1.65;;
8831;SDS011;4452;50.756;4.472;2022-10-16T02:03:56;5.15;;;1.80;;
8831;SDS011;4452;50.756;4.472;2022-10-16T02:06:24;4.60;;;2.00;;
8831;SDS011;4452;50.756;4.472;2022-10-16T02:08:50;5.28;;;1.90;;
8831;SDS011;4452;50.756;4.472;2022-10-16T02:11:16;4.65;;;1.90;;
8831;SDS011;4452;50.756;4.472;2022-10-16T02:13:46;5.00;;;1.92;;
8831;SDS011;4452;50.756;4.472;2022-10-16T02:16:15;8.68;;;2.13;;
8831;SDS011;4452;50.756;4.472;2022-10-16T02:18:41;8.73;;;2.00;;
8831;SDS011;4452;50.756;4.472;2022-10-16T02:23:56;10.05;;;2.20;;
8831;SDS011;4452;50.756;4.472;2022-10-16T02:26:37;3.55;;;2.15;;
8831;SDS011;4452;50.756;4.472;2022-10-16T02:29:24;6.88;;;2.00;;
8831;SDS011;4452;50.756;4.472;2022-10-16T02:31:52;2.55;;;2.08;;
8831;SDS011;4452;50.756;4.472;2022-10-16T02:34:22;5.93;;;2.00;;
8831;SDS011;4452;50.756;4.472;2022-10-16T02:36:50;4.45;;;2.13;;
8831;SDS011;4452;50.756;4.472;2022-10-16T02:39:18;6.85;;;2.35;;
8831;SDS011;4452;50.756;4.472;2022-10-16T02:41:44;2.38;;;1.98;;
8831;SDS011;4452;50.756;4.472;2022-10-16T02:44:10;7.43;;;2.20;;
8831;SDS011;4452;50.756;4.472;2022-10-16T02:46:36;5.35;;;2.30;;
8831;SDS011;4452;50.756;4.472;2022-10-16T02:49:01;9.93;;;2.22;;
8831;SDS011;4452;50.756;4.472;2022-10-16T02:51:27;3.05;;;2.00;;
8831;SDS011;4452;50.756;4.472;2022-10-16T02:53:53;2.30;;;2.10;;
8831;SDS011;4452;50.756;4.472;2022-10-16T02:56:18;6.43;;;2.53;;
8831;SDS011;4452;50.756;4.472;2022-10-16T02:58:44;3.85;;;2.55;;
8831;SDS011;4452;50.756;4.472;2022-10-16T03:01:09;8.80;;;2.67;;
8831;SDS011;4452;50.756;4.472;2022-10-16T03:03:37;4.75;;;2.42;;
8831;SDS011;4452;50.756;4.472;2022-10-16T03:06:03;5.40;;;2.65;;
8831;SDS011;4452;50.756;4.472;2022-10-16T03:08:29;3.50;;;2.50;;
8831;SDS011;4452;50.756;4.472;2022-10-16T03:10:55;5.57;;;2.50;;
8831;SDS011;4452;50.756;4.472;2022-10-16T03:13:20;6.22;;;2.60;;
8831;SDS011;4452;50.756;4.472;2022-10-16T03:15:46;3.25;;;2.50;;
8831;SDS011;4452;50.756;4.472;2022-10-16T03:18:12;5.32;;;2.45;;
8831;SDS011;4452;50.756;4.472;2022-10-16T03:20:38;4.97;;;2.42;;
8831;SDS011;4452;50.756;4.472;2022-10-16T03:23:03;6.55;;;2.42;;
8831;SDS011;4452;50.756;4.472;2022-10-16T03:25:29;4.13;;;2.72;;
8831;SDS011;4452;50.756;4.472;2022-10-16T03:27:55;6.57;;;2.90;;
8831;SDS011;4452;50.756;4.472;2022-10-16T03:30:21;2.70;;;2.50;;
8831;SDS011;4452;50.756;4.472;2022-10-16T03:32:46;6.72;;;2.70;;
8831;SDS011;4452;50.756;4.472;2022-10-16T03:35:12;12.65;;;2.83;;
8831;SDS011;4452;50.756;4.472;2022-10-16T03:37:38;8.60;;;2.92;;
8831;SDS011;4452;50.756;4.472;2022-10-16T03:40:04;7.53;;;2.90;;
8831;SDS011;4452;50.756;4.472;2022-10-16T03:42:30;7.72;;;2.50;;
8831;SDS011;4452;50.756;4.472;2022-10-16T03:44:55;4.68;;;2.80;;
8831;SDS011;4452;50.756;4.472;2022-10-16T03:47:21;6.93;;;2.40;;
8831;SDS011;4452;50.756;4.472;2022-10-16T03:49:49;8.77;;;2.95;;
8831;SDS011;4452;50.756;4.472;2022-10-16T03:52:14;3.88;;;2.75;;
8831;SDS011;4452;50.756;4.472;2022-10-16T03:54:40;5.25;;;2.88;;
8831;SDS011;4452;50.756;4.472;2022-10-16T03:57:06;3.65;;;2.58;;
8831;SDS011;4452;50.756;4.472;2022-10-16T03:59:32;8.10;;;3.15;;
8831;SDS011;4452;50.756;4.472;2022-10-16T04:01:58;4.20;;;2.53;;
8831;SDS011;4452;50.756;4.472;2022-10-16T04:04:24;4.63;;;2.50;;
8831;SDS011;4452;50.756;4.472;2022-10-16T04:06:50;9.52;;;2.67;;
8831;SDS011;4452;50.756;4.472;2022-10-16T04:09:16;7.68;;;2.95;;
8831;SDS011;4452;50.756;4.472;2022-10-16T04:11:41;5.32;;;2.60;;
8831;SDS011;4452;50.756;4.472;2022-10-16T04:14:07;3.90;;;2.58;;
8831;SDS011;4452;50.756;4.472;2022-10-16T04:16:33;7.93;;;3.00;;
8831;SDS011;4452;50.756;4.472;2022-10-16T04:18:59;7.65;;;3.10;;
8831;SDS011;4452;50.756;4.472;2022-10-16T04:21:25;3.88;;;2.63;;
8831;SDS011;4452;50.756;4.472;2022-10-16T04:23:50;5.40;;;2.90;;
8831;SDS011;4452;50.756;4.472;2022-10-16T04:26:16;5.55;;;3.10;;
8831;SDS011;4452;50.756;4.472;2022-10-16T04:28:41;5.90;;;2.85;;
8831;SDS011;4452;50.756;4.472;2022-10-16T04:31:08;3.90;;;3.03;;
8831;SDS011;4452;50.756;4.472;2022-10-16T04:33:33;8.05;;;3.30;;
8831;SDS011;4452;50.756;4.472;2022-10-16T04:35:59;5.60;;;3.00;;
8831;SDS011;4452;50.756;4.472;2022-10-16T04:38:27;4.22;;;2.83;;
8831;SDS011;4452;50.756;4.472;2022-10-16T04:40:53;3.10;;;2.17;;
8831;SDS011;4452;50.756;4.472;2022-10-16T04:43:19;10.13;;;3.20;;
8831;SDS011;4452;50.756;4.472;2022-10-16T04:45:45;8.48;;;3.35;;
8831;SDS011;4452;50.756;4.472;2022-10-16T04:48:11;5.55;;;2.78;;
8831;SDS011;4452;50.756;4.472;2022-10-16T04:50:36;8.32;;;3.17;;
8831;SDS011;4452;50.756;4.472;2022-10-16T04:53:02;8.35;;;3.17;;
8831;SDS011;4452;50.756;4.472;2022-10-16T04:55:28;6.65;;;3.17;;
8831;SDS011;4452;50.756;4.472;2022-10-16T04:57:54;9.50;;;3.10;;
8831;SDS011;4452;50.756;4.472;2022-10-16T05:00:20;7.45;;;2.90;;
8831;SDS011;4452;50.756;4.472;2022-10-16T05:02:47;7.05;;;3.10;;
8831;SDS011;4452;50.756;4.472;2022-10-16T05:05:14;8.57;;;3.20;;
8831;SDS011;4452;50.756;4.472;2022-10-16T05:07:40;6.22;;;2.92;;
8831;SDS011;4452;50.756;4.472;2022-10-16T05:10:06;5.72;;;3.10;;
8831;SDS011;4452;50.756;4.472;2022-10-16T05:12:32;2.58;;;2.38;;
8831;SDS011;4452;50.756;4.472;2022-10-16T05:14:57;5.50;;;3.40;;
8831;SDS011;4452;50.756;4.472;2022-10-16T05:17:24;5.38;;;3.55;;
8831;SDS011;4452;50.756;4.472;2022-10-16T05:19:50;14.75;;;3.67;;
8831;SDS011;4452;50.756;4.472;2022-10-16T05:22:16;7.78;;;3.30;;
8831;SDS011;4452;50.756;4.472;2022-10-16T05:24:42;8.20;;;3.35;;
8831;SDS011;4452;50.756;4.472;2022-10-16T05:27:09;5.22;;;3.10;;
8831;SDS011;4452;50.756;4.472;2022-10-16T05:29:35;11.65;;;3.72;;
8831;SDS011;4452;50.756;4.472;2022-10-16T05:32:01;4.95;;;2.97;;
8831;SDS011;4452;50.756;4.472;2022-10-16T05:34:27;14.35;;;3.42;;
8831;SDS011;4452;50.756;4.472;2022-10-16T05:36:53;10.80;;;3.78;;
8831;SDS011;4452;50.756;4.472;2022-10-16T05:39:19;9.15;;;4.00;;
8831;SDS011;4452;50.756;4.472;2022-10-16T05:41:45;8.60;;;3.70;;
8831;SDS011;4452;50.756;4.472;2022-10-16T05:44:10;11.45;;;3.42;;
8831;SDS011;4452;50.756;4.472;2022-10-16T05:46:36;4.93;;;3.13;;
8831;SDS011;4452;50.756;4.472;2022-10-16T05:49:02;11.30;;;3.90;;
8831;SDS011;4452;50.756;4.472;2022-10-16T05:51:28;6.03;;;3.65;;
8831;SDS011;4452;50.756;4.472;2022-10-16T05:53:53;8.43;;;3.40;;
8831;SDS011;4452;50.756;4.472;2022-10-16T05:56:19;11.70;;;3.90;;
8831;SDS011;4452;50.756;4.472;2022-10-16T05:58:45;7.55;;;4.28;;
8831;SDS011;4452;50.756;4.472;2022-10-16T06:01:15;4.32;;;3.45;;
8831;SDS011;4452;50.756;4.472;2022-10-16T06:03:42;4.88;;;3.33;;
8831;SDS011;4452;50.756;4.472;2022-10-16T06:06:12;9.65;;;4.00;;
8831;SDS011;4452;50.756;4.472;2022-10-16T06:08:43;8.60;;;4.32;;
8831;SDS011;4452;50.756;4.472;2022-10-16T06:11:11;10.65;;;3.72;;
8831;SDS011;4452;50.756;4.472;2022-10-16T06:13:39;8.15;;;3.75;;
8831;SDS011;4452;50.756;4.472;2022-10-16T06:16:07;8.27;;;3.53;;
8831;SDS011;4452;50.756;4.472;2022-10-16T06:18:33;6.53;;;4.20;;
8831;SDS011;4452;50.756;4.472;2022-10-16T06:20:59;7.03;;;4.57;;
8831;SDS011;4452;50.756;4.472;2022-10-16T06:23:25;11.35;;;5.25;;
8831;SDS011;4452;50.756;4.472;2022-10-16T06:25:50;11.07;;;5.28;;
8831;SDS011;4452;50.756;4.472;2022-10-16T06:28:16;6.38;;;3.90;;
8831;SDS011;4452;50.756;4.472;2022-10-16T06:30:42;11.90;;;4.28;;
8831;SDS011;4452;50.756;4.472;2022-10-16T06:33:11;7.50;;;3.85;;
8831;SDS011;4452;50.756;4.472;2022-10-16T06:35:37;7.78;;;3.53;;
8831;SDS011;4452;50.756;4.472;2022-10-16T06:38:02;9.30;;;4.13;;
8831;SDS011;4452;50.756;4.472;2022-10-16T06:40:28;6.78;;;3.53;;
8831;SDS011;4452;50.756;4.472;2022-10-16T06:42:56;11.05;;;4.15;;
8831;SDS011;4452;50.756;4.472;2022-10-16T06:45:22;7.45;;;3.90;;
8831;SDS011;4452;50.756;4.472;2022-10-16T06:47:48;9.95;;;3.80;;
8831;SDS011;4452;50.756;4.472;2022-10-16T06:50:13;6.30;;;3.08;;
8831;SDS011;4452;50.756;4.472;2022-10-16T06:52:39;15.13;;;5.03;;
8831;SDS011;4452;50.756;4.472;2022-10-16T06:55:05;8.43;;;4.15;;
8831;SDS011;4452;50.756;4.472;2022-10-16T06:57:31;6.28;;;3.10;;
8831;SDS011;4452;50.756;4.472;2022-10-16T06:59:56;7.25;;;3.97;;
8831;SDS011;4452;50.756;4.472;2022-10-16T07:02:22;6.90;;;3.90;;
8831;SDS011;4452;50.756;4.472;2022-10-16T07:04:48;5.05;;;3.95;;
8831;SDS011;4452;50.756;4.472;2022-10-16T07:07:13;7.78;;;3.50;;
8831;SDS011;4452;50.756;4.472;2022-10-16T07:09:39;8.73;;;3.88;;
8831;SDS011;4452;50.756;4.472;2022-10-16T07:12:05;8.02;;;3.83;;
8831;SDS011;4452;50.756;4.472;2022-10-16T07:14:31;5.13;;;3.50;;
8831;SDS011;4452;50.756;4.472;2022-10-16T07:16:56;5.43;;;2.53;;
8831;SDS011;4452;50.756;4.472;2022-10-16T07:19:22;12.63;;;4.00;;
8831;SDS011;4452;50.756;4.472;2022-10-16T07:21:48;9.57;;;3.70;;
8831;SDS011;4452;50.756;4.472;2022-10-16T07:24:14;7.47;;;2.90;;
8831;SDS011;4452;50.756;4.472;2022-10-16T07:26:41;10.43;;;3.90;;
8831;SDS011;4452;50.756;4.472;2022-10-16T07:29:12;6.45;;;3.97;;
8831;SDS011;4452;50.756;4.472;2022-10-16T07:31:45;4.22;;;3.20;;
8831;SDS011;4452;50.756;4.472;2022-10-16T07:34:12;2.95;;;2.50;;
8831;SDS011;4452;50.756;4.472;2022-10-16T07:36:39;11.23;;;3.60;;
8831;SDS011;4452;50.756;4.472;2022-10-16T07:39:04;8.55;;;3.28;;
8831;SDS011;4452;50.756;4.472;2022-10-16T07:41:30;3.17;;;2.05;;
8831;SDS011;4452;50.756;4.472;2022-10-16T07:43:58;4.68;;;2.53;;
8831;SDS011;4452;50.756;4.472;2022-10-16T07:46:26;4.82;;;2.08;;
8831;SDS011;4452;50.756;4.472;2022-10-16T07:48:52;3.72;;;2.60;;
8831;SDS011;4452;50.756;4.472;2022-10-16T07:51:19;6.13;;;2.10;;
8831;SDS011;4452;50.756;4.472;2022-10-16T07:53:46;6.68;;;2.42;;
8831;SDS011;4452;50.756;4.472;2022-10-16T07:56:12;4.82;;;2.15;;
8831;SDS011;4452;50.756;4.472;2022-10-16T07:58:38;2.70;;;2.17;;
8831;SDS011;4452;50.756;4.472;2022-10-16T08:01:05;5.88;;;2.25;;
8831;SDS011;4452;50.756;4.472;2022-10-16T08:03:35;7.45;;;2.20;;
8831;SDS011;4452;50.756;4.472;2022-10-16T08:06:01;3.90;;;2.25;;
8831;SDS011;4452;50.756;4.472;2022-10-16T08:08:28;5.32;;;2.50;;
8831;SDS011;4452;50.756;4.472;2022-10-16T08:10:54;1.70;;;1.35;;
8831;SDS011;4452;50.756;4.472;2022-10-16T08:13:21;6.25;;;2.15;;
8831;SDS011;4452;50.756;4.472;2022-10-16T08:15:48;2.00;;;1.80;;
8831;SDS011;4452;50.756;4.472;2022-10-16T08:18:14;3.50;;;2.20;;
8831;SDS011;4452;50.756;4.472;2022-10-16T08:20:40;7.10;;;2.00;;
8831;SDS011;4452;50.756;4.472;2022-10-16T08:23:07;4.45;;;1.70;;
8831;SDS011;4452;50.756;4.472;2022-10-16T08:25:35;3.47;;;1.85;;
8831;SDS011;4452;50.756;4.472;2022-10-16T08:28:06;5.78;;;2.28;;
8831;SDS011;4452;50.756;4.472;2022-10-16T08:30:33;5.82;;;2.10;;
8831;SDS011;4452;50.756;4.472;2022-10-16T08:32:59;4.85;;;1.50;;
8831;SDS011;4452;50.756;4.472;2022-10-16T08:35:25;1.63;;;1.42;;
8831;SDS011;4452;50.756;4.472;2022-10-16T08:37:51;4.57;;;1.55;;
8831;SDS011;4452;50.756;4.472;2022-10-16T08:40:21;4.15;;;1.42;;
8831;SDS011;4452;50.756;4.472;2022-10-16T08:43:09;8.38;;;1.75;;
8831;SDS011;4452;50.756;4.472;2022-10-16T08:51:02;8.35;;;2.00;;
8831;SDS011;4452;50.756;4.472;2022-10-16T08:53:42;5.57;;;1.50;;
8831;SDS011;4452;50.756;4.472;2022-10-16T08:56:13;3.67;;;1.20;;
8831;SDS011;4452;50.756;4.472;2022-10-16T08:58:39;6.88;;;1.50;;
8831;SDS011;4452;50.756;4.472;2022-10-16T09:01:10;6.55;;;1.50;;
8831;SDS011;4452;50.756;4.472;2022-10-16T09:17:10;4.10;;;1.30;;
8831;SDS011;4452;50.756;4.472;2022-10-16T09:19:40;5.65;;;1.38;;
8831;SDS011;4452;50.756;4.472;2022-10-16T09:22:14;2.15;;;1.70;;
8831;SDS011;4452;50.756;4.472;2022-10-16T09:24:41;4.20;;;1.50;;
8831;SDS011;4452;50.756;4.472;2022-10-16T09:27:09;9.43;;;1.88;;
8831;SDS011;4452;50.756;4.472;2022-10-16T09:29:36;7.95;;;1.10;;
8831;SDS011;4452;50.756;4.472;2022-10-16T09:32:07;2.90;;;1.40;;
8831;SDS011;4452;50.756;4.472;2022-10-16T09:34:39;5.93;;;1.45;;
8831;SDS011;4452;50.756;4.472;2022-10-16T09:37:13;4.72;;;1.60;;
8831;SDS011;4452;50.756;4.472;2022-10-16T09:42:26;9.23;;;2.80;;
8831;SDS011;4452;50.756;4.472;2022-10-16T09:44:56;2.28;;;1.20;;
8831;SDS011;4452;50.756;4.472;2022-10-16T09:47:28;5.15;;;1.52;;
8831;SDS011;4452;50.756;4.472;2022-10-16T09:49:56;6.35;;;1.98;;
8831;SDS011;4452;50.756;4.472;2022-10-16T09:52:27;5.55;;;1.88;;
8831;SDS011;4452;50.756;4.472;2022-10-16T09:57:21;9.32;;;1.52;;
8831;SDS011;4452;50.756;4.472;2022-10-16T09:59:53;4.15;;;2.08;;
8831;SDS011;4452;50.756;4.472;2022-10-16T10:02:28;2.83;;;1.00;;
8831;SDS011;4452;50.756;4.472;2022-10-16T10:04:58;5.10;;;1.30;;
8831;SDS011;4452;50.756;4.472;2022-10-16T10:07:25;5.80;;;1.55;;
8831;SDS011;4452;50.756;4.472;2022-10-16T10:09:52;4.22;;;1.42;;
8831;SDS011;4452;50.756;4.472;2022-10-16T10:12:21;3.63;;;1.45;;
8831;SDS011;4452;50.756;4.472;2022-10-16T10:14:52;10.73;;;1.27;;
8831;SDS011;4452;50.756;4.472;2022-10-16T10:27:49;2.92;;;1.08;;
8831;SDS011;4452;50.756;4.472;2022-10-16T10:33:18;8.93;;;1.17;;
8831;SDS011;4452;50.756;4.472;2022-10-16T10:38:45;3.28;;;1.20;;
8831;SDS011;4452;50.756;4.472;2022-10-16T10:46:34;7.50;;;1.45;;
8831;SDS011;4452;50.756;4.472;2022-10-16T10:49:13;4.50;;;1.45;;
8831;SDS011;4452;50.756;4.472;2022-10-16T10:55:19;3.55;;;1.00;;
8831;SDS011;4452;50.756;4.472;2022-10-16T11:03:16;6.57;;;1.92;;
8831;SDS011;4452;50.756;4.472;2022-10-16T11:05:54;3.42;;;0.98;;
8831;SDS011;4452;50.756;4.472;2022-10-16T11:08:37;7.55;;;1.40;;
8831;SDS011;4452;50.756;4.472;2022-10-16T11:11:15;4.10;;;1.00;;
8831;SDS011;4452;50.756;4.472;2022-10-16T11:14:03;6.28;;;1.10;;
8831;SDS011;4452;50.756;4.472;2022-10-16T11:16:39;2.53;;;1.10;;
8831;SDS011;4452;50.756;4.472;2022-10-16T11:21:51;3.83;;;1.25;;
8831;SDS011;4452;50.756;4.472;2022-10-16T11:27:11;3.75;;;1.08;;
8831;SDS011;4452;50.756;4.472;2022-10-16T11:30:04;1.45;;;1.20;;
8831;SDS011;4452;50.756;4.472;2022-10-16T11:32:32;5.20;;;1.10;;
8831;SDS011;4452;50.756;4.472;2022-10-16T11:35:11;1.60;;;0.90;;
8831;SDS011;4452;50.756;4.472;2022-10-16T11:37:50;4.05;;;1.10;;
8831;SDS011;4452;50.756;4.472;2022-10-16T11:42:51;6.45;;;1.10;;
8831;SDS011;4452;50.756;4.472;2022-10-16T11:45:26;5.30;;;1.08;;
8831;SDS011;4452;50.756;4.472;2022-10-16T11:48:14;4.07;;;1.00;;
8831;SDS011;4452;50.756;4.472;2022-10-16T11:53:53;3.25;;;0.98;;
8831;SDS011;4452;50.756;4.472;2022-10-16T11:56:46;3.40;;;1.15;;
8831;SDS011;4452;50.756;4.472;2022-10-16T12:08:15;6.85;;;1.30;;
8831;SDS011;4452;50.756;4.472;2022-10-16T12:10:43;4.88;;;1.27;;
8831;SDS011;4452;50.756;4.472;2022-10-16T12:13:43;5.28;;;1.20;;
8831;SDS011;4452;50.756;4.472;2022-10-16T12:16:19;3.15;;;1.27;;
8831;SDS011;4452;50.756;4.472;2022-10-16T12:18:47;1.05;;;0.90;;
8831;SDS011;4452;50.756;4.472;2022-10-16T12:21:14;3.25;;;1.27;;
8831;SDS011;4452;50.756;4.472;2022-10-16T12:23:51;2.80;;;1.38;;
8831;SDS011;4452;50.756;4.472;2022-10-16T12:26:25;3.83;;;1.00;;
8831;SDS011;4452;50.756;4.472;2022-10-16T12:28:53;1.90;;;0.93;;
8831;SDS011;4452;50.756;4.472;2022-10-16T12:31:20;2.65;;;1.00;;
8831;SDS011;4452;50.756;4.472;2022-10-16T12:34:00;4.72;;;1.20;;
8831;SDS011;4452;50.756;4.472;2022-10-16T12:36:29;2.25;;;1.20;;
8831;SDS011;4452;50.756;4.472;2022-10-16T12:38:57;4.95;;;1.20;;
8831;SDS011;4452;50.756;4.472;2022-10-16T12:41:25;6.35;;;1.30;;
8831;SDS011;4452;50.756;4.472;2022-10-16T12:43:51;3.45;;;1.60;;
8831;SDS011;4452;50.756;4.472;2022-10-16T12:48:43;4.82;;;1.17;;
8831;SDS011;4452;50.756;4.472;2022-10-16T12:54:00;3.75;;;1.20;;
8831;SDS011;4452;50.756;4.472;2022-10-16T12:56:41;2.67;;;1.33;;
8831;SDS011;4452;50.756;4.472;2022-10-16T12:59:16;4.47;;;1.00;;
8831;SDS011;4452;50.756;4.472;2022-10-16T13:15:32;3.30;;;1.70;;
8831;SDS011;4452;50.756;4.472;2022-10-16T13:29:36;6.15;;;1.80;;
8831;SDS011;4452;50.756;4.472;2022-10-16T13:32:10;3.85;;;1.10;;
8831;SDS011;4452;50.756;4.472;2022-10-16T13:34:45;7.03;;;1.60;;
8831;SDS011;4452;50.756;4.472;2022-10-16T13:37:19;5.05;;;1.77;;
8831;SDS011;4452;50.756;4.472;2022-10-16T13:39:49;3.65;;;1.30;;
8831;SDS011;4452;50.756;4.472;2022-10-16T13:42:24;4.97;;;1.48;;
8831;SDS011;4452;50.756;4.472;2022-10-16T13:44:53;6.18;;;1.40;;
8831;SDS011;4452;50.756;4.472;2022-10-16T13:47:22;6.43;;;1.60;;
8831;SDS011;4452;50.756;4.472;2022-10-16T13:52:38;7.43;;;1.65;;
8831;SDS011;4452;50.756;4.472;2022-10-16T13:55:10;4.80;;;1.83;;
8831;SDS011;4452;50.756;4.472;2022-10-16T13:57:37;7.90;;;1.80;;
8831;SDS011;4452;50.756;4.472;2022-10-16T14:00:02;4.53;;;1.80;;
8831;SDS011;4452;50.756;4.472;2022-10-16T14:02:41;8.77;;;2.15;;
8831;SDS011;4452;50.756;4.472;2022-10-16T14:05:08;3.75;;;1.50;;
8831;SDS011;4452;50.756;4.472;2022-10-16T14:07:35;3.38;;;1.45;;
8831;SDS011;4452;50.756;4.472;2022-10-16T14:10:04;3.13;;;1.40;;
8831;SDS011;4452;50.756;4.472;2022-10-16T14:12:32;2.58;;;1.30;;
8831;SDS011;4452;50.756;4.472;2022-10-16T14:14:59;5.50;;;1.52;;
8831;SDS011;4452;50.756;4.472;2022-10-16T14:17:26;4.78;;;1.60;;
8831;SDS011;4452;50.756;4.472;2022-10-16T14:19:58;3.42;;;1.60;;
8831;SDS011;4452;50.756;4.472;2022-10-16T14:22:35;7.35;;;1.55;;
8831;SDS011;4452;50.756;4.472;2022-10-16T14:27:44;3.88;;;1.27;;
8831;SDS011;4452;50.756;4.472;2022-10-16T14:30:22;3.33;;;1.65;;
8831;SDS011;4452;50.756;4.472;2022-10-16T14:33:20;5.40;;;1.95;;
8831;SDS011;4452;50.756;4.472;2022-10-16T14:35:46;2.67;;;1.38;;
8831;SDS011;4452;50.756;4.472;2022-10-16T14:38:22;3.70;;;1.67;;
8831;SDS011;4452;50.756;4.472;2022-10-16T14:40:48;6.03;;;1.60;;
8831;SDS011;4452;50.756;4.472;2022-10-16T14:43:20;3.97;;;1.30;;
8831;SDS011;4452;50.756;4.472;2022-10-16T14:45:51;6.32;;;1.33;;
8831;SDS011;4452;50.756;4.472;2022-10-16T14:48:20;2.23;;;1.13;;
8831;SDS011;4452;50.756;4.472;2022-10-16T14:50:46;5.80;;;1.45;;
8831;SDS011;4452;50.756;4.472;2022-10-16T14:53:12;1.38;;;1.27;;
8831;SDS011;4452;50.756;4.472;2022-10-16T14:55:38;7.47;;;1.23;;
8831;SDS011;4452;50.756;4.472;2022-10-16T14:58:05;8.77;;;1.60;;
8831;SDS011;4452;50.756;4.472;2022-10-16T15:00:32;3.78;;;1.10;;
8831;SDS011;4452;50.756;4.472;2022-10-16T15:02:58;3.35;;;1.33;;
8831;SDS011;4452;50.756;4.472;2022-10-16T15:05:25;3.03;;;1.13;;
8831;SDS011;4452;50.756;4.472;2022-10-16T15:07:52;2.08;;;1.30;;
8831;SDS011;4452;50.756;4.472;2022-10-16T15:10:19;4.43;;;1.50;;
8831;SDS011;4452;50.756;4.472;2022-10-16T15:12:47;6.22;;;1.85;;
8831;SDS011;4452;50.756;4.472;2022-10-16T15:17:48;1.35;;;1.10;;
8831;SDS011;4452;50.756;4.472;2022-10-16T15:20:18;3.90;;;1.17;;
8831;SDS011;4452;50.756;4.472;2022-10-16T15:22:44;2.97;;;1.35;;
8831;SDS011;4452;50.756;4.472;2022-10-16T15:25:20;3.72;;;1.50;;
8831;SDS011;4452;50.756;4.472;2022-10-16T15:27:57;5.47;;;1.25;;
8831;SDS011;4452;50.756;4.472;2022-10-16T15:30:23;3.35;;;1.33;;
8831;SDS011;4452;50.756;4.472;2022-10-16T15:32:49;3.08;;;1.50;;
8831;SDS011;4452;50.756;4.472;2022-10-16T15:35:15;3.45;;;1.70;;
8831;SDS011;4452;50.756;4.472;2022-10-16T15:37:40;2.47;;;1.52;;
8831;SDS011;4452;50.756;4.472;2022-10-16T15:40:06;6.10;;;1.88;;
8831;SDS011;4452;50.756;4.472;2022-10-16T15:42:33;7.88;;;2.00;;
8831;SDS011;4452;50.756;4.472;2022-10-16T15:44:59;9.60;;;2.30;;
8831;SDS011;4452;50.756;4.472;2022-10-16T15:47:24;5.35;;;1.95;;
8831;SDS011;4452;50.756;4.472;2022-10-16T15:49:50;4.40;;;2.00;;
8831;SDS011;4452;50.756;4.472;2022-10-16T15:52:16;5.10;;;2.17;;
8831;SDS011;4452;50.756;4.472;2022-10-16T15:54:42;4.57;;;2.03;;
8831;SDS011;4452;50.756;4.472;2022-10-16T15:57:08;3.13;;;2.00;;
8831;SDS011;4452;50.756;4.472;2022-10-16T15:59:33;3.20;;;2.15;;
8831;SDS011;4452;50.756;4.472;2022-10-16T16:01:59;2.67;;;2.00;;
8831;SDS011;4452;50.756;4.472;2022-10-16T16:04:24;7.07;;;2.17;;
8831;SDS011;4452;50.756;4.472;2022-10-16T16:06:50;3.28;;;1.95;;
8831;SDS011;4452;50.756;4.472;2022-10-16T16:09:16;4.53;;;2.00;;
8831;SDS011;4452;50.756;4.472;2022-10-16T16:11:41;3.42;;;2.10;;
8831;SDS011;4452;50.756;4.472;2022-10-16T16:14:07;16.15;;;8.45;;
8831;SDS011;4452;50.756;4.472;2022-10-16T16:16:37;15.07;;;8.20;;
8831;SDS011;4452;50.756;4.472;2022-10-16T16:19:04;8.50;;;5.80;;
8831;SDS011;4452;50.756;4.472;2022-10-16T16:21:31;6.68;;;3.50;;
8831;SDS011;4452;50.756;4.472;2022-10-16T16:23:58;5.00;;;2.72;;
8831;SDS011;4452;50.756;4.472;2022-10-16T16:26:24;8.88;;;2.58;;
8831;SDS011;4452;50.756;4.472;2022-10-16T16:28:51;4.97;;;2.75;;
8831;SDS011;4452;50.756;4.472;2022-10-16T16:31:18;11.38;;;2.92;;
8831;SDS011;4452;50.756;4.472;2022-10-16T16:33:43;16.83;;;2.60;;
8831;SDS011;4452;50.756;4.472;2022-10-16T16:36:09;7.75;;;2.88;;
8831;SDS011;4452;50.756;4.472;2022-10-16T16:38:35;4.40;;;2.55;;
8831;SDS011;4452;50.756;4.472;2022-10-16T16:41:13;4.32;;;3.03;;
8831;SDS011;4452;50.756;4.472;2022-10-16T16:43:44;4.40;;;3.38;;
8831;SDS011;4452;50.756;4.472;2022-10-16T16:46:10;6.72;;;3.90;;
8831;SDS011;4452;50.756;4.472;2022-10-16T16:48:36;4.80;;;4.00;;
8831;SDS011;4452;50.756;4.472;2022-10-16T16:51:06;7.10;;;4.07;;
8831;SDS011;4452;50.756;4.472;2022-10-16T16:53:34;6.28;;;3.65;;
8831;SDS011;4452;50.756;4.472;2022-10-16T16:56:01;6.78;;;4.78;;
8831;SDS011;4452;50.756;4.472;2022-10-16T16:58:30;10.07;;;4.18;;
8831;SDS011;4452;50.756;4.472;2022-10-16T17:00:56;7.38;;;4.88;;
8831;SDS011;4452;50.756;4.472;2022-10-16T17:03:26;8.27;;;5.30;;
8831;SDS011;4452;50.756;4.472;2022-10-16T17:06:02;11.70;;;5.00;;
8831;SDS011;4452;50.756;4.472;2022-10-16T17:08:32;9.88;;;4.80;;
8831;SDS011;4452;50.756;4.472;2022-10-16T17:10:58;16.70;;;5.25;;
8831;SDS011;4452;50.756;4.472;2022-10-16T17:13:24;9.93;;;4.82;;
8831;SDS011;4452;50.756;4.472;2022-10-16T17:15:51;7.18;;;4.88;;
8831;SDS011;4452;50.756;4.472;2022-10-16T17:18:18;8.57;;;5.03;;
8831;SDS011;4452;50.756;4.472;2022-10-16T17:20:44;11.52;;;5.10;;
8831;SDS011;4452;50.756;4.472;2022-10-16T17:23:11;8.07;;;5.43;;
8831;SDS011;4452;50.756;4.472;2022-10-16T17:25:37;11.40;;;7.05;;
8831;SDS011;4452;50.756;4.472;2022-10-16T17:28:04;9.23;;;5.85;;
8831;SDS011;4452;50.756;4.472;2022-10-16T17:30:30;10.90;;;6.10;;
8831;SDS011;4452;50.756;4.472;2022-10-16T17:32:58;13.38;;;6.50;;
8831;SDS011;4452;50.756;4.472;2022-10-16T17:35:24;11.30;;;6.72;;